Time;durP1;ratioP1;P1;durP2;ratioP2;P2;SDS_P1;SDS_P2;PMS_P1;PMS_P2;Temp;Humidity;BMP_temperature;BMP_pressure;BME280_temperature;BME280_humidity;BME280_pressure;Samples;Min_cycle;Max_cycle;Signal;HPM_P1;HPM_P2
2021/09/25 00:00:34;;;;;;;29.72;14.53;;;;;;;6.48;84.89;94466.80;1691549;83;21069;-56
2021/09/25 00:03:03;;;;;;;23.55;13.53;;;;;;;6.42;84.73;94469.88;1683331;83;20977;-57
2021/09/25 00:05:34;;;;;;;20.77;12.93;;;;;;;6.39;84.81;94472.69;1704899;83;21490;-56
2021/09/25 00:08:00;;;;;;;20.40;12.88;;;;;;;6.32;84.69;94478.33;1685937;83;21211;-56
2021/09/25 00:10:27;;;;;;;20.17;12.30;;;;;;;6.24;84.77;94480.45;1690834;83;20968;-56
2021/09/25 00:12:54;;;;;;;22.42;12.90;;;;;;;6.28;85.10;94484.45;1696215;83;20973;-56
2021/09/25 00:15:21;;;;;;;23.65;14.23;;;;;;;6.33;85.02;94475.77;1677955;83;21104;-57
2021/09/25 00:17:49;;;;;;;26.27;15.28;;;;;;;6.35;85.15;94476.86;1687837;83;21162;-56
2021/09/25 00:20:16;;;;;;;24.35;14.90;;;;;;;6.41;84.99;94482.59;1693665;83;22119;-57
2021/09/25 00:22:43;;;;;;;29.32;14.03;;;;;;;6.45;84.87;94479.16;1699617;83;21060;-56
2021/09/25 00:25:10;;;;;;;22.75;14.15;;;;;;;6.49;84.66;94479.88;1678741;83;21087;-56
2021/09/25 00:27:37;;;;;;;21.70;14.65;;;;;;;6.57;84.37;94482.59;1686070;83;21084;-56
2021/09/25 00:30:06;;;;;;;23.22;14.25;;;;;;;6.60;84.09;94484.47;1695530;83;21244;-56
2021/09/25 00:32:33;;;;;;;24.00;15.53;;;;;;;6.61;83.88;94481.90;1705481;83;20965;-57
2021/09/25 00:34:59;;;;;;;18.32;13.65;;;;;;;6.59;83.82;94477.46;1706318;83;21016;-56
2021/09/25 00:37:26;;;;;;;20.20;14.40;;;;;;;6.55;83.73;94471.32;1703631;83;20965;-56
2021/09/25 00:39:53;;;;;;;29.20;16.37;;;;;;;6.49;83.70;94479.26;1681642;83;21469;-56
2021/09/25 00:42:19;;;;;;;27.30;14.63;;;;;;;6.48;83.76;94475.61;1687120;83;21820;-56
2021/09/25 00:44:46;;;;;;;23.25;12.65;;;;;;;6.49;83.79;94479.88;1697122;83;21009;-56
2021/09/25 00:47:13;;;;;;;17.75;12.10;;;;;;;6.47;83.46;94469.94;1686444;83;21631;-55
2021/09/25 00:49:40;;;;;;;20.00;12.65;;;;;;;6.41;83.15;94472.44;1691120;83;21103;-55
2021/09/25 00:52:07;;;;;;;21.73;12.63;;;;;;;6.35;83.32;94476.11;1688496;83;21099;-56
2021/09/25 00:54:34;;;;;;;15.45;11.80;;;;;;;6.34;83.36;94474.57;1691549;83;21149;-56
2021/09/25 00:57:00;;;;;;;18.70;10.90;;;;;;;6.36;83.42;94483.11;1686684;83;21527;-56
2021/09/25 00:59:27;;;;;;;16.77;10.50;;;;;;;6.37;83.07;94483.27;1706289;83;20965;-56
2021/09/25 01:01:53;;;;;;;17.95;12.25;;;;;;;6.35;82.84;94478.84;1682234;83;21094;-56
2021/09/25 01:04:20;;;;;;;19.90;11.20;;;;;;;6.31;82.84;94487.11;1696072;83;21090;-56
2021/09/25 01:06:47;;;;;;;16.30;10.45;;;;;;;6.31;83.09;94484.38;1679150;83;21040;-56
2021/09/25 01:09:14;;;;;;;18.15;11.05;;;;;;;6.32;82.78;94481.06;1674546;83;21008;-57
2021/09/25 01:11:41;;;;;;;12.82;9.70;;;;;;;6.29;82.76;94475.06;1703104;83;21449;-57
2021/09/25 01:14:07;;;;;;;11.68;8.25;;;;;;;6.26;82.49;94481.38;1690684;83;20973;-57
2021/09/25 01:16:35;;;;;;;11.88;9.30;;;;;;;6.22;82.17;94484.21;1690511;83;20984;-56
2021/09/25 01:19:02;;;;;;;13.45;8.83;;;;;;;6.14;82.09;94482.06;1703038;83;21814;-57
2021/09/25 01:21:29;;;;;;;10.03;8.63;;;;;;;6.07;82.29;94475.37;1694995;83;20973;-56
2021/09/25 01:23:56;;;;;;;11.73;8.70;;;;;;;6.00;82.54;94476.30;1699916;84;20961;-57
2021/09/25 01:26:25;;;;;;;12.82;9.53;;;;;;;6.00;82.98;94471.45;1690532;83;21009;-56
2021/09/25 01:28:52;;;;;;;24.63;13.43;;;;;;;6.03;83.03;94471.97;1694869;83;21550;-56
2021/09/25 01:31:19;;;;;;;20.30;10.58;;;;;;;6.01;83.05;94469.66;1697063;83;21102;-56
2021/09/25 01:33:48;;;;;;;22.67;12.35;;;;;;;5.95;83.08;94469.23;1687504;83;21453;-56
2021/09/25 01:36:16;;;;;;;14.85;10.40;;;;;;;5.84;83.24;94468.69;1700003;83;21000;-56
2021/09/25 01:38:43;;;;;;;16.32;10.08;;;;;;;5.76;83.38;94480.33;1687935;83;21556;-56
2021/09/25 01:41:10;;;;;;;22.80;10.80;;;;;;;5.68;83.38;94487.72;1677886;83;21270;-56
2021/09/25 01:43:37;;;;;;;28.07;12.63;;;;;;;5.58;83.59;94490.09;1699295;83;21106;-57
2021/09/25 01:46:04;;;;;;;27.70;15.48;;;;;;;5.51;83.77;94490.22;1692462;83;20977;-57
2021/09/25 01:48:31;;;;;;;30.25;15.25;;;;;;;5.49;84.15;94488.51;1689060;83;21115;-57
2021/09/25 01:50:57;;;;;;;32.93;16.15;;;;;;;5.48;84.32;94493.79;1689532;83;21432;-57
2021/09/25 01:53:25;;;;;;;35.80;15.75;;;;;;;5.47;84.33;94489.53;1681305;83;37223;-58
2021/09/25 01:55:52;;;;;;;26.12;12.63;;;;;;;5.42;84.32;94494.11;1700512;83;21814;-60
2021/09/25 01:58:18;;;;;;;13.58;9.20;;;;;;;5.39;84.48;94494.96;1712994;83;20948;-57
2021/09/25 02:00:45;;;;;;;16.27;10.08;;;;;;;5.38;84.42;94489.33;1684570;83;21599;-57
2021/09/25 02:03:12;;;;;;;25.90;13.40;;;;;;;5.42;84.39;94492.14;1678237;83;20993;-57
2021/09/25 02:05:39;;;;;;;23.50;11.33;;;;;;;5.44;84.32;94494.46;1691889;83;20953;-57
2021/09/25 02:08:06;;;;;;;23.05;13.40;;;;;;;5.47;84.49;94484.06;1681491;83;21203;-57
2021/09/25 02:10:33;;;;;;;21.02;13.80;;;;;;;5.48;84.27;94493.20;1689394;83;21017;-58
2021/09/25 02:12:59;;;;;;;32.23;13.28;;;;;;;5.47;84.17;94493.62;1684341;83;21103;-57
2021/09/25 02:15:26;;;;;;;25.70;11.88;;;;;;;5.41;84.08;94485.15;1675053;83;21092;-56
2021/09/25 02:17:53;;;;;;;35.73;13.65;;;;;;;5.41;84.20;94494.70;1693630;83;21001;-56
2021/09/25 02:20:21;;;;;;;22.35;11.10;;;;;;;5.40;84.21;94493.16;1703465;83;21139;-56
2021/09/25 02:22:48;;;;;;;28.35;14.20;;;;;;;5.41;84.34;94496.67;1689922;83;21016;-56
2021/09/25 02:25:15;;;;;;;27.85;13.25;;;;;;;5.39;84.43;94508.59;1696614;83;21067;-56
2021/09/25 02:27:41;;;;;;;26.50;13.43;;;;;;;5.34;84.34;94504.97;1703543;83;21083;-56
2021/09/25 02:30:14;;;;;;;24.80;11.33;;;;;;;5.27;84.31;94510.58;1670101;83;20969;-56
2021/09/25 02:32:42;;;;;;;40.98;15.50;;;;;;;5.24;84.53;94515.51;1683591;83;21147;-57
2021/09/25 02:35:10;;;;;;;47.93;19.00;;;;;;;5.22;84.47;94513.80;1690883;83;21032;-57
2021/09/25 02:37:38;;;;;;;24.75;13.05;;;;;;;5.17;84.36;94521.08;1689214;83;21072;-56
2021/09/25 02:40:07;;;;;;;28.50;12.88;;;;;;;5.14;84.35;94521.91;1673018;83;20985;-57
2021/09/25 02:42:35;;;;;;;34.13;14.33;;;;;;;5.09;84.32;94516.95;1684543;83;21623;-56
2021/09/25 02:45:04;;;;;;;30.75;12.63;;;;;;;5.08;84.42;94522.23;1694770;83;21106;-57
2021/09/25 02:47:30;;;;;;;31.15;13.18;;;;;;;5.08;84.06;94530.41;1691894;83;20996;-57
2021/09/25 02:49:57;;;;;;;26.35;13.50;;;;;;;5.09;84.07;94527.86;1692615;83;21024;-60
2021/09/25 02:52:23;;;;;;;29.75;16.48;;;;;;;5.12;84.05;94527.02;1705667;83;21495;-57
2021/09/25 02:54:50;;;;;;;35.65;18.12;;;;;;;5.15;83.90;94526.79;1682377;83;21155;-57
2021/09/25 02:57:16;;;;;;;36.45;17.80;;;;;;;5.15;83.92;94523.45;1682270;83;21143;-57
2021/09/25 02:59:43;;;;;;;24.30;13.60;;;;;;;5.17;83.81;94534.71;1682509;83;21034;-57
2021/09/25 03:02:10;;;;;;;26.60;14.25;;;;;;;5.16;83.58;94537.88;1683528;83;20985;-57
2021/09/25 03:04:37;;;;;;;35.33;15.40;;;;;;;5.13;83.46;94535.37;1675317;83;20993;-57
2021/09/25 03:07:04;;;;;;;39.38;16.65;;;;;;;5.13;83.66;94532.64;1688326;83;20980;-57
2021/09/25 03:09:30;;;;;;;27.27;13.58;;;;;;;5.17;83.58;94531.23;1684863;83;21143;-57
2021/09/25 03:11:57;;;;;;;31.68;13.98;;;;;;;5.17;83.66;94540.16;1707461;83;20952;-57
2021/09/25 03:14:24;;;;;;;23.40;13.32;;;;;;;5.17;83.84;94548.34;1713292;83;21009;-57
2021/09/25 03:16:51;;;;;;;23.90;13.10;;;;;;;5.16;83.74;94552.25;1685056;83;21226;-57
2021/09/25 03:19:17;;;;;;;24.20;14.65;;;;;;;5.15;83.53;94550.72;1684267;83;21008;-57
2021/09/25 03:21:44;;;;;;;33.78;13.53;;;;;;;5.11;83.48;94558.20;1694311;83;21791;-57
2021/09/25 03:24:10;;;;;;;20.57;12.25;;;;;;;5.07;83.40;94556.13;1698725;83;21063;-57
2021/09/25 03:26:37;;;;;;;22.90;12.23;;;;;;;5.04;83.53;94556.19;1713036;83;20972;-57
2021/09/25 03:29:04;;;;;;;21.00;11.78;;;;;;;5.05;83.40;94562.59;1683626;83;21045;-57
2021/09/25 03:31:31;;;;;;;21.60;12.73;;;;;;;4.99;83.21;94566.97;1703042;83;21587;-58
2021/09/25 03:33:57;;;;;;;18.57;10.43;;;;;;;4.98;83.48;94568.16;1707307;83;21136;-57
2021/09/25 03:36:24;;;;;;;22.30;11.28;;;;;;;4.97;83.43;94569.34;1705452;83;20960;-57
2021/09/25 03:38:51;;;;;;;21.80;11.30;;;;;;;4.97;83.67;94564.50;1677231;83;21537;-56
2021/09/25 03:41:18;;;;;;;19.70;10.35;;;;;;;4.95;83.86;94566.27;1693683;84;21017;-57
2021/09/25 03:43:50;;;;;;;20.15;8.88;;;;;;;4.99;84.05;94573.78;1687537;83;21032;-58
2021/09/25 03:46:13;;;;;;;21.68;11.05;;;;;;;4.98;83.44;94575.58;1693478;83;21174;-57
2021/09/25 03:48:40;;;;;;;30.85;10.68;;;;;;;4.95;83.59;94577.17;1695601;83;21071;-57
2021/09/25 03:51:08;;;;;;;27.37;10.28;;;;;;;4.92;83.22;94583.45;1677540;83;21179;-58
2021/09/25 03:53:35;;;;;;;37.73;11.88;;;;;;;4.86;83.27;94589.20;1673772;83;21025;-57
2021/09/25 03:56:07;;;;;;;28.92;9.73;;;;;;;4.81;83.26;94592.98;1689502;83;21020;-58
2021/09/25 03:58:30;;;;;;;39.85;10.80;;;;;;;4.78;83.53;94591.09;1672136;83;21168;-57
2021/09/25 04:00:57;;;;;;;39.70;10.95;;;;;;;4.78;83.52;94590.48;1699559;84;21441;-56
2021/09/25 04:03:23;;;;;;;28.07;9.93;;;;;;;4.77;83.30;94594.40;1687362;83;21756;-57
2021/09/25 04:05:50;;;;;;;34.60;13.30;;;;;;;4.75;83.28;94594.05;1676262;83;21004;-57
2021/09/25 04:08:17;;;;;;;21.17;8.98;;;;;;;4.77;83.45;94594.40;1683550;83;21020;-56
2021/09/25 04:10:43;;;;;;;21.87;8.35;;;;;;;4.76;83.07;94598.92;1703778;83;21138;-56
2021/09/25 04:13:11;;;;;;;37.73;18.10;;;;;;;4.69;82.97;94606.60;1691297;83;21671;-56
2021/09/25 04:15:38;;;;;;;25.75;13.28;;;;;;;4.64;83.16;94604.33;1691321;83;21466;-57
2021/09/25 04:18:05;;;;;;;33.65;13.13;;;;;;;4.61;83.36;94609.23;1682135;83;21041;-57
2021/09/25 04:20:32;;;;;;;42.78;12.37;;;;;;;4.52;83.46;94606.28;1673758;83;21012;-57
2021/09/25 04:22:58;;;;;;;30.45;11.80;;;;;;;4.44;83.73;94610.88;1683359;83;21121;-57
2021/09/25 04:25:30;;;;;;;27.25;12.82;;;;;;;4.41;84.13;94618.52;1689628;83;21594;-57
2021/09/25 04:27:53;;;;;;;33.95;13.15;;;;;;;4.40;84.25;94615.00;1678915;83;21081;-57
2021/09/25 04:30:20;;;;;;;40.45;14.35;;;;;;;4.31;84.26;94620.20;1680366;83;21179;-58
2021/09/25 04:32:47;;;;;;;35.00;12.98;;;;;;;4.27;84.66;94618.09;1704182;83;21008;-57
2021/09/25 04:35:14;;;;;;;36.98;13.05;;;;;;;4.29;84.79;94623.92;1680117;83;21169;-56
2021/09/25 04:37:40;;;;;;;35.45;13.88;;;;;;;4.34;84.66;94635.72;1698875;83;21000;-58
2021/09/25 04:40:09;;;;;;;28.07;13.45;;;;;;;4.38;84.61;94635.07;1705773;83;20985;-58
2021/09/25 04:42:36;;;;;;;38.13;15.98;;;;;;;4.36;84.46;94629.27;1701891;83;21449;-58
2021/09/25 04:45:04;;;;;;;35.68;17.73;;;;;;;4.34;84.65;94632.98;1678990;83;20977;-58
2021/09/25 04:47:31;;;;;;;33.60;16.62;;;;;;;4.40;84.79;94640.12;1695521;83;21714;-57
2021/09/25 04:49:57;;;;;;;32.20;13.25;;;;;;;4.44;84.74;94642.20;1692811;83;21456;-58
2021/09/25 04:52:24;;;;;;;29.15;13.28;;;;;;;4.49;84.64;94652.63;1699078;83;21123;-58
2021/09/25 04:54:50;;;;;;;37.45;13.83;;;;;;;4.52;84.44;94647.13;1691379;83;21028;-58
2021/09/25 04:57:17;;;;;;;29.10;14.03;;;;;;;4.57;84.40;94658.92;1697478;83;21602;-60
2021/09/25 04:59:43;;;;;;;30.12;13.88;;;;;;;4.61;84.50;94663.72;1682877;83;21138;-58
2021/09/25 05:02:10;;;;;;;39.90;19.60;;;;;;;4.68;84.65;94666.36;1700100;83;21437;-57
2021/09/25 05:04:37;;;;;;;28.87;13.93;;;;;;;4.77;84.82;94672.05;1694639;83;21502;-57
2021/09/25 05:07:04;;;;;;;33.30;14.98;;;;;;;4.88;84.81;94664.50;1705394;83;21083;-57
2021/09/25 05:09:30;;;;;;;35.30;16.65;;;;;;;4.99;84.74;94666.46;1691030;83;21052;-59
2021/09/25 05:11:57;;;;;;;30.20;16.17;;;;;;;5.06;84.77;94663.64;1701266;83;21895;-57
2021/09/25 05:14:23;;;;;;;20.60;12.30;;;;;;;5.16;84.85;94676.31;1713100;83;21004;-59
2021/09/25 05:16:50;;;;;;;33.98;14.35;;;;;;;5.28;84.75;94683.31;1713059;83;21020;-61
2021/09/25 05:19:16;;;;;;;31.90;15.35;;;;;;;5.36;84.77;94675.78;1706743;83;21076;-56
2021/09/25 05:21:43;;;;;;;27.65;13.50;;;;;;;5.47;84.75;94685.94;1695184;83;21460;-57
2021/09/25 05:24:10;;;;;;;29.95;13.05;;;;;;;5.58;84.57;94693.36;1693671;83;21846;-57
2021/09/25 05:26:36;;;;;;;31.02;15.40;;;;;;;5.67;84.46;94694.94;1697795;83;21043;-57
2021/09/25 05:29:04;;;;;;;26.15;15.65;;;;;;;5.73;84.52;94700.88;1703647;83;21547;-58
2021/09/25 05:31:31;;;;;;;25.97;17.62;;;;;;;5.79;84.38;94702.56;1690217;83;21115;-57
2021/09/25 05:33:58;;;;;;;28.27;17.62;;;;;;;5.82;84.36;94701.72;1691598;83;20972;-58
2021/09/25 05:36:25;;;;;;;36.83;19.12;;;;;;;5.86;84.37;94699.11;1681662;83;21142;-58
2021/09/25 05:38:52;;;;;;;40.60;18.17;;;;;;;5.96;84.39;94698.13;1694910;83;21001;-58
2021/09/25 05:41:19;;;;;;;29.07;15.25;;;;;;;6.13;84.42;94701.73;1690043;83;20977;-58
2021/09/25 05:43:51;;;;;;;27.52;16.60;;;;;;;6.27;83.81;94698.70;1682810;83;21032;-58
2021/09/25 05:46:15;;;;;;;28.98;16.67;;;;;;;6.33;83.62;94694.31;1701798;83;21448;-58
2021/09/25 05:48:42;;;;;;;31.57;13.62;;;;;;;6.47;83.76;94692.62;1687492;83;21114;-58
2021/09/25 05:51:12;;;;;;;32.20;14.13;;;;;;;6.62;83.15;94698.77;1703689;83;21005;-58
2021/09/25 05:53:38;;;;;;;31.42;13.00;;;;;;;6.72;82.98;94701.85;1699872;83;20976;-59
2021/09/25 05:56:05;;;;;;;29.57;11.33;;;;;;;6.88;82.71;94699.77;1712517;83;21134;-58
2021/09/25 05:58:31;;;;;;;19.25;10.00;;;;;;;7.05;82.26;94699.98;1687954;83;21012;-58
2021/09/25 06:00:58;;;;;;;16.37;10.75;;;;;;;7.21;81.68;94702.12;1681896;83;21618;-58
2021/09/25 06:03:25;;;;;;;21.30;11.65;;;;;;;7.32;81.23;94710.24;1673003;83;21092;-57
2021/09/25 06:05:51;;;;;;;17.85;10.80;;;;;;;7.38;80.90;94704.42;1693483;83;21039;-57
2021/09/25 06:08:18;;;;;;;27.37;12.47;;;;;;;7.42;80.43;94709.23;1702883;83;20981;-60
2021/09/25 06:10:44;;;;;;;33.42;14.18;;;;;;;7.49;80.18;94712.41;1703651;83;21016;-58
2021/09/25 06:13:11;;;;;;;34.55;17.20;;;;;;;7.56;80.15;94706.75;1678481;83;21078;-60
2021/09/25 06:15:38;;;;;;;34.35;19.57;;;;;;;7.62;80.32;94704.44;1694564;83;21056;-58
2021/09/25 06:18:05;;;;;;;44.05;21.77;;;;;;;7.76;80.29;94705.45;1679246;83;21603;-57
2021/09/25 06:20:32;;;;;;;58.13;26.20;;;;;;;7.90;80.26;94708.43;1703856;83;21017;-58
2021/09/25 06:22:59;;;;;;;44.75;25.60;;;;;;;8.00;80.33;94706.78;1665684;83;21000;-58
2021/09/25 06:25:27;;;;;;;39.33;20.65;;;;;;;8.15;80.33;94709.91;1695824;83;21606;-59
2021/09/25 06:27:54;;;;;;;43.92;22.80;;;;;;;8.32;80.25;94712.22;1681863;83;21064;-58
2021/09/25 06:30:21;;;;;;;36.68;18.32;;;;;;;8.52;80.14;94707.34;1682950;83;21539;-59
2021/09/25 06:32:48;;;;;;;25.90;15.95;;;;;;;8.75;79.92;94714.50;1689667;83;21076;-59
2021/09/25 06:35:16;;;;;;;39.05;15.70;;;;;;;8.94;79.38;94717.86;1693638;83;21112;-58
2021/09/25 06:37:43;;;;;;;97.25;67.35;;;;;;;9.13;78.71;94713.36;1712481;83;21937;-58
2021/09/25 06:40:11;;;;;;;29.55;17.98;;;;;;;9.26;78.06;94718.27;1683702;83;21044;-59
2021/09/25 06:42:39;;;;;;;30.32;12.85;;;;;;;9.33;77.69;94713.92;1691901;83;21120;-60
2021/09/25 06:45:08;;;;;;;23.92;10.40;;;;;;;9.39;77.12;94719.02;1690560;83;21106;-59
2021/09/25 06:47:34;;;;;;;25.48;10.13;;;;;;;9.50;76.79;94723.58;1700589;83;21040;-60
2021/09/25 06:50:03;;;;;;;24.23;10.25;;;;;;;9.62;76.50;94730.43;1685682;83;21992;-58
2021/09/25 06:52:30;;;;;;;21.33;11.12;;;;;;;9.77;76.21;94728.77;1691642;83;21445;-57
2021/09/25 06:54:58;;;;;;;24.05;11.30;;;;;;;9.95;76.17;94728.20;1705145;83;20972;-58
2021/09/25 06:57:26;;;;;;;22.05;10.70;;;;;;;10.13;75.97;94733.91;1679355;83;21028;-57
2021/09/25 06:59:54;;;;;;;15.83;10.00;;;;;;;10.29;75.73;94734.50;1693120;83;20996;-58
2021/09/25 07:02:21;;;;;;;23.30;9.28;;;;;;;10.46;75.57;94735.09;1706887;83;21159;-58
2021/09/25 07:04:49;;;;;;;21.82;9.33;;;;;;;10.61;75.48;94731.41;1694788;83;21465;-59
2021/09/25 07:07:15;;;;;;;15.28;9.60;;;;;;;10.73;75.33;94732.72;1683928;83;21104;-59
2021/09/25 07:09:42;;;;;;;22.70;9.45;;;;;;;10.90;75.03;94738.19;1687183;83;21071;-59
2021/09/25 07:12:10;;;;;;;23.18;9.00;;;;;;;11.09;74.62;94732.17;1703418;83;20977;-59
2021/09/25 07:14:37;;;;;;;16.25;8.20;;;;;;;11.23;73.91;94725.54;1694635;83;21143;-58
2021/09/25 07:17:04;;;;;;;20.15;8.73;;;;;;;11.36;72.83;94729.57;1686884;83;21091;-57
2021/09/25 07:19:31;;;;;;;13.48;8.00;;;;;;;11.41;72.38;94726.22;1695520;83;21173;-58
2021/09/25 07:22:00;;;;;;;14.07;8.98;;;;;;;11.46;72.01;94727.78;1675302;83;21090;-58
2021/09/25 07:24:26;;;;;;;20.40;8.88;;;;;;;11.59;71.98;94738.12;1700161;83;21488;-58
2021/09/25 07:26:53;;;;;;;26.57;9.58;;;;;;;11.73;71.75;94739.55;1689288;83;21188;-58
2021/09/25 07:29:20;;;;;;;27.95;7.97;;;;;;;11.89;71.63;94742.05;1693294;84;20962;-58
2021/09/25 07:31:47;;;;;;;12.90;5.90;;;;;;;12.06;71.33;94746.84;1685001;83;20974;-58
2021/09/25 07:34:14;;;;;;;13.28;5.25;;;;;;;12.23;70.18;94748.09;1669041;83;21030;-58
2021/09/25 07:36:40;;;;;;;21.65;5.22;;;;;;;12.38;68.49;94751.80;1709811;83;21477;-60
2021/09/25 07:39:07;;;;;;;14.70;6.72;;;;;;;12.49;67.99;94759.00;1676015;83;21183;-60
2021/09/25 07:41:36;;;;;;;17.17;5.92;;;;;;;12.61;67.60;94760.86;1675439;83;21091;-60
2021/09/25 07:44:05;;;;;;;20.95;8.90;;;;;;;12.70;66.93;94758.87;1685983;83;21130;-59
2021/09/25 07:46:33;;;;;;;20.40;11.10;;;;;;;12.80;66.35;94755.48;1712871;83;21008;-59
2021/09/25 07:48:59;;;;;;;23.75;7.78;;;;;;;12.88;66.11;94754.72;1695280;83;21460;-56
2021/09/25 07:51:27;;;;;;;15.23;6.20;;;;;;;12.99;65.15;94756.44;1683980;83;21169;-60
2021/09/25 07:53:55;;;;;;;14.90;5.53;;;;;;;13.08;64.55;94748.75;1696349;83;21020;-60
2021/09/25 07:56:22;;;;;;;14.47;6.80;;;;;;;13.14;64.28;94759.33;1703514;83;21012;-59
2021/09/25 07:58:49;;;;;;;16.67;5.15;;;;;;;13.21;63.81;94754.85;1681571;83;21203;-58
2021/09/25 08:01:16;;;;;;;12.95;4.65;;;;;;;13.29;63.71;94756.83;1689249;83;21008;-59
2021/09/25 08:03:43;;;;;;;13.62;6.12;;;;;;;13.37;63.10;94755.89;1682175;83;21139;-59
2021/09/25 08:06:11;;;;;;;14.78;5.65;;;;;;;13.42;63.03;94751.89;1712800;83;21111;-58
2021/09/25 08:08:37;;;;;;;16.05;6.75;;;;;;;13.51;62.97;94748.34;1693508;83;21079;-59
2021/09/25 08:11:04;;;;;;;16.30;5.62;;;;;;;13.63;62.68;94752.28;1686726;83;21137;-59
2021/09/25 08:13:31;;;;;;;13.15;7.30;;;;;;;13.78;62.46;94748.25;1692610;83;21088;-58
2021/09/25 08:15:59;;;;;;;31.87;7.30;;;;;;;13.94;61.97;94748.63;1692735;83;21887;-60
2021/09/25 08:18:27;;;;;;;48.85;27.35;;;;;;;14.06;61.48;94756.56;1676242;83;20985;-59
2021/09/25 08:20:54;;;;;;;14.93;5.53;;;;;;;14.19;61.56;94749.59;1682660;83;20971;-59
2021/09/25 08:23:21;;;;;;;20.25;9.45;;;;;;;14.34;61.12;94760.75;1661926;83;21080;-58
2021/09/25 08:25:48;;;;;;;18.62;8.40;;;;;;;14.42;60.46;94759.15;1683322;83;21055;-58
2021/09/25 08:28:14;;;;;;;14.07;5.60;;;;;;;14.48;60.24;94760.17;1683357;83;21149;-58
2021/09/25 08:30:41;;;;;;;11.90;4.12;;;;;;;14.55;60.36;94767.36;1691213;83;21198;-59
2021/09/25 08:33:08;;;;;;;11.05;5.05;;;;;;;14.61;59.97;94760.70;1699545;83;21113;-59
2021/09/25 08:35:36;;;;;;;15.25;5.60;;;;;;;14.67;60.07;94767.11;1699043;83;21436;-58
2021/09/25 08:38:04;;;;;;;7.67;4.50;;;;;;;14.77;60.17;94766.42;1695189;83;21068;-56
2021/09/25 08:40:31;;;;;;;12.45;4.62;;;;;;;14.88;59.99;94771.59;1688230;83;21194;-59
2021/09/25 08:42:58;;;;;;;7.37;4.53;;;;;;;14.96;59.87;94765.81;1700117;83;21004;-60
2021/09/25 08:45:25;;;;;;;16.37;4.37;;;;;;;15.02;59.85;94763.91;1703412;83;21020;-59
2021/09/25 08:47:54;;;;;;;32.50;6.37;;;;;;;15.09;59.77;94771.87;1694121;83;21133;-59
2021/09/25 08:50:21;;;;;;;13.32;4.55;;;;;;;15.10;59.95;94780.33;1696840;83;21122;-60
2021/09/25 08:52:47;;;;;;;16.00;4.37;;;;;;;15.12;59.54;94783.38;1699403;83;21882;-59
2021/09/25 08:55:14;;;;;;;11.05;5.60;;;;;;;15.13;59.54;94777.98;1700983;83;21059;-59
2021/09/25 08:57:41;;;;;;;13.25;5.15;;;;;;;15.15;59.59;94772.73;1682390;83;21123;-59
2021/09/25 09:00:36;;;;;;;17.45;4.47;;;;;;;15.24;59.81;94780.20;1682186;83;21014;-59
2021/09/25 09:03:25;;;;;;;27.10;5.33;;;;;;;15.30;59.87;94774.94;1695830;83;21055;-58
2021/09/25 09:05:54;;;;;;;24.23;4.17;;;;;;;15.40;59.92;94777.75;1697108;83;21156;-58
2021/09/25 09:08:24;;;;;;;10.65;4.53;;;;;;;15.49;59.52;94779.05;1692490;83;20974;-59
2021/09/25 09:10:51;;;;;;;21.65;5.45;;;;;;;15.57;59.46;94777.42;1689168;83;21197;-59
2021/09/25 09:13:18;;;;;;;18.37;5.47;;;;;;;15.69;59.48;94777.77;1668098;83;21052;-60
2021/09/25 09:15:46;;;;;;;20.30;4.45;;;;;;;15.82;59.52;94783.79;1684882;83;21054;-59
2021/09/25 09:18:18;;;;;;;20.23;5.05;;;;;;;15.93;58.90;94784.59;1640752;84;21195;-60
2021/09/25 09:21:15;;;;;;;15.30;4.58;;;;;;;15.96;59.35;94787.17;1686499;84;20992;-60
2021/09/25 09:23:58;;;;;;;11.93;5.33;;;;;;;15.99;58.79;94790.98;1683423;83;21563;-59
2021/09/25 09:26:28;;;;;;;22.65;5.87;;;;;;;16.00;59.14;94781.41;1679537;83;21514;-59
2021/09/25 09:28:56;;;;;;;14.40;6.10;;;;;;;16.03;59.02;94787.38;1705132;83;20993;-60
2021/09/25 09:31:26;;;;;;;21.35;5.92;;;;;;;16.04;59.29;94793.85;1688795;83;21131;-58
2021/09/25 09:33:57;;;;;;;18.30;6.35;;;;;;;16.06;59.17;94791.36;1698373;83;20941;-59
2021/09/25 09:36:38;;;;;;;12.07;5.12;;;;;;;16.06;59.63;94792.74;1685410;83;21495;-59
2021/09/25 09:39:17;;;;;;;12.05;4.95;;;;;;;16.05;59.82;94798.16;1712951;83;21067;-59
2021/09/25 09:41:53;;;;;;;22.40;5.00;;;;;;;16.02;59.60;94803.89;1694308;83;21067;-57
2021/09/25 09:44:23;;;;;;;20.40;6.17;;;;;;;15.96;59.74;94805.22;1692025;83;21155;-59
2021/09/25 09:46:57;;;;;;;14.93;5.83;;;;;;;15.89;59.92;94791.71;1705039;83;20960;-58
2021/09/25 09:49:29;;;;;;;11.88;4.78;;;;;;;15.83;60.31;94803.35;1667686;83;21110;-59
2021/09/25 09:52:11;;;;;;;8.43;5.17;;;;;;;15.79;60.51;94799.23;1698431;83;21492;-57
2021/09/25 09:54:44;;;;;;;33.20;5.83;;;;;;;15.81;60.64;94800.29;1688257;83;21028;-59
2021/09/25 09:57:17;;;;;;;19.40;5.42;;;;;;;15.82;61.01;94801.83;1677904;83;21822;-58
2021/09/25 09:59:50;;;;;;;23.10;5.08;;;;;;;15.84;60.98;94802.11;1691795;83;21471;-59
2021/09/25 10:02:17;;;;;;;22.45;6.53;;;;;;;15.85;61.05;94798.08;1706866;83;21444;-59
2021/09/25 10:04:44;;;;;;;23.77;5.28;;;;;;;15.88;61.32;94798.50;1710328;83;21634;-60
2021/09/25 10:07:11;;;;;;;31.70;6.40;;;;;;;15.94;61.48;94804.16;1695178;83;20993;-58
2021/09/25 10:09:40;;;;;;;32.35;6.58;;;;;;;15.99;61.17;94801.47;1713005;83;21119;-57
2021/09/25 10:12:13;;;;;;;23.90;6.42;;;;;;;16.04;61.22;94809.73;1694796;83;21123;-59
2021/09/25 10:14:48;;;;;;;20.65;5.33;;;;;;;16.08;60.92;94811.06;1693859;83;21115;-58
2021/09/25 10:17:18;;;;;;;22.48;5.25;;;;;;;16.09;60.44;94802.87;1674533;83;21555;-57
2021/09/25 10:19:45;;;;;;;18.12;5.62;;;;;;;16.08;60.43;94812.45;1702535;83;21005;-57
2021/09/25 10:22:20;;;;;;;17.48;5.17;;;;;;;16.07;60.66;94814.34;1713254;83;21132;-58
2021/09/25 10:25:00;;;;;;;9.88;4.45;;;;;;;16.04;60.75;94816.05;1688199;83;20981;-57
2021/09/25 10:27:33;;;;;;;26.30;5.03;;;;;;;16.06;60.63;94810.78;1691860;83;20988;-58
2021/09/25 10:30:00;;;;;;;17.20;5.35;;;;;;;16.07;60.66;94815.73;1689030;83;21019;-59
2021/09/25 10:32:43;;;;;;;7.37;4.25;;;;;;;16.07;60.54;94812.31;1690277;83;21451;-58
2021/09/25 10:35:17;;;;;;;21.37;6.00;;;;;;;16.08;60.70;94807.54;1683804;83;21160;-59
2021/09/25 10:37:53;;;;;;;21.60;6.33;;;;;;;16.10;60.75;94809.95;1701520;83;21065;-60
2021/09/25 10:40:28;;;;;;;21.37;6.12;;;;;;;16.15;60.72;94805.14;1703597;83;21531;-58
2021/09/25 10:43:04;;;;;;;15.00;5.35;;;;;;;16.22;60.68;94804.73;1712963;83;20985;-60
2021/09/25 10:45:38;;;;;;;20.35;5.90;;;;;;;16.33;60.80;94803.52;1691000;83;21029;-59
2021/09/25 10:48:25;;;;;;;10.50;3.60;;;;;;;16.45;60.74;94799.06;1696297;83;21548;-59
2021/09/25 10:50:55;;;;;;;9.75;4.35;;;;;;;16.62;59.70;94805.61;1698131;83;21047;-58
2021/09/25 10:53:29;;;;;;;18.07;4.85;;;;;;;16.76;59.68;94801.99;1703877;83;21063;-58
2021/09/25 10:56:03;;;;;;;11.95;4.10;;;;;;;16.91;59.01;94803.34;1675917;83;21486;-59
2021/09/25 10:58:37;;;;;;;11.38;4.42;;;;;;;17.07;58.68;94802.14;1694467;83;20960;-59
2021/09/25 11:01:12;;;;;;;7.60;4.65;;;;;;;17.21;57.69;94801.91;1702466;83;21297;-58
2021/09/25 11:03:53;;;;;;;6.37;4.15;;;;;;;17.31;57.22;94803.30;1682661;83;20989;-58
2021/09/25 11:06:42;;;;;;;8.05;3.62;;;;;;;17.47;57.11;94806.93;1704431;83;20972;-58
2021/09/25 11:09:41;;;;;;;6.45;3.25;;;;;;;17.56;56.29;94799.80;1712407;83;21076;-59
2021/09/25 11:12:14;;;;;;;12.60;4.35;;;;;;;17.58;56.20;94799.45;1687758;83;21020;-58
2021/09/25 11:14:51;;;;;;;17.50;4.83;;;;;;;17.60;56.37;94796.17;1693144;83;21754;-58
2021/09/25 11:17:24;;;;;;;12.33;4.83;;;;;;;17.63;56.33;94803.55;1702072;83;20964;-60
2021/09/25 11:20:08;;;;;;;14.38;4.65;;;;;;;17.61;56.42;94811.64;1701676;83;21435;-57
2021/09/25 11:22:39;;;;;;;6.08;4.20;;;;;;;17.61;56.58;94810.25;1697315;83;21017;-58
2021/09/25 11:25:12;;;;;;;7.67;5.30;;;;;;;17.65;55.42;94812.17;1701930;83;21025;-58
2021/09/25 11:27:44;;;;;;;8.83;4.20;;;;;;;17.66;55.58;94815.09;1682778;83;21134;-58
2021/09/25 11:30:25;;;;;;;6.53;4.37;;;;;;;17.65;55.74;94808.00;1709794;83;20956;-58
2021/09/25 11:32:56;;;;;;;15.50;4.35;;;;;;;17.75;56.10;94810.74;1693809;83;21048;-61